Shawnee Mission, KS (66212)

6:09 AM CST on March 02, 2015 (GMT -0600)
MorningView | Change Station
CLOSE
Current Station
Personal Weather Station
Location: Overland Park, KS
Elevation: 965 ft
Nearby Weather Stations

Elev 965 ft 38.95 °N, 94.69 °W | Updated 46 seconds ago

Clear
Clear
19.1 °F
Feels Like 19 °F
N
0.0
Wind Variable Wind from North
Gusts 0.0 mph

Today
High -- | Low -- °F
--% Chance of Precip.
Yesterday
High -- | Low -- °F
Precip. -- in
6:50 AM 6:12 PM
Waxing Gibbous, 91% visible
Pressure 30.51 in
Visibility 6.0 miles
Clouds Clear
Windchill 19 °F
Dew Point 16 °F
Humidity 88%
Rainfall 0.00 in
Snow Depth Not available.
UV 0 out of 12
Pollen .50 out of 12
Air Quality Not available.
Flu Activity Not available.
METAR KOJC 021153Z AUTO 00000KT 6SM BR CLR M06/M08 A3046 RMK AO2 SLP329 T10611078 11033 21078 57006

More Conditions Fewer Conditions

Pressure 30.51 in
Visibility 6.0 miles
Clouds Clear
Windchill 19 °F
Dew Point 16 °F
Humidity 88%
Rainfall 0.00 in
Snow Depth Not available.
UV 0 out of 12
Pollen .50 out of 12
Air Quality Not available.
Flu Activity Not available.
METAR KOJC 021153Z AUTO 00000KT 6SM BR CLR M06/M08 A3046 RMK AO2 SLP329 T10611078 11033 21078 57006

More Conditions Fewer Conditions

10-Day Weather Forecast

Almanac

Astronomy

Mar. 02, 2015 Rise Set
Actual Time
Civil Twilight
Nautical Twilight
Astronomical Twilight
Moon
Length of Visible Light
Length of Day
Tomorrow will be .
, % of the Moon is Illuminated

Today's Extremes

State Highs State Lows

Community

WunderPhotos

Upload Photos

1,801,761 photos uploaded!

WunderBlogs® & News

Nearby

Air Quality

  Air Quality AQ Index Pollutant
Not available.

Snow Depth

Station Depth Elevation

Earthquake Activity

City Distance Mag. Time & Date
Minimum magnitude displayed is 2.5.

Coastal Water Temperatures

Place Temperature

Nearby Weather Stations